Portada
METAR-TAF:

METAR-TAF

Aeroports :

Hattiesburg-Laurel Regional Airport

Hattiesburg-Laurel, Mississipí, Estats Units d'Amèrica

latitud: 31-28N, longitud: 089-20W, altitud: 91 m

Observació

L'informe es va fer fa 1 hora i 0 minuts, a les 06:56 UTC
Vent 3 kt del Est/Nord-Est
Temperatura -2°C
Humitat 74%
Pressió 1029 hPa
Visibilitat: 16.1 km
Cel clar

METAR: KPIB 220656Z AUTO 07003KT 10SM CLR M02/M06 A3040 RMK AO2 SLP296 T10221056 FZRANO

Hora: 01:56 (07:56 UTC)

Pronòstic

L'informe es va fer fa 2 hores i 15 minuts, a les 05:41 UTC
Pronòstic vàlid del 22 a les 06 UTC al 23 a les 06 UTC
Vent 4 kt del Est
Visibilitat: 10 km
Cel ennuvolat a una alçada de 25000 ft

TAF: KPIB 220541Z 2206/2306 09004KT P6SM BKN250

Observacions i pronòstics meteorològics de més de 4000 aeroports (METAR i TAF).

Les estacions disponibles són els punts grocs i vermells al mapa.

Posi el ratolí al punt desitjat per veure el nom de l'estació.

Feu clic per veure les observacions i els pronòstics meteorològics.

Per canviar el mapa: feu clic els botons verds amb una creu de color negre per apropar; al botó verd amb un guió per allunyar la imatge; o en les fletxes verdes per a mapes adjacents.


METAR-TAF: